Terminal Aerodrome Forecast
Issued by NWS

Home | Current Version | Previous Version | Graphics & Text | Print | Product List | Glossary On
Versions: 1 2 3 4 5 6 7 8 9 10 11 12 13 14 15 16 17 18 19 20 21 22 23 24 25 26 27 28 29 30 31 32
549
FTUS43 KGRB 282321
TAFRHI
TAF
KRHI 282321Z 2900/2924 07007KT P6SM BKN050 BKN250
     FM290200 05003KT P6SM SCT050 BKN250
     FM290600 00000KT P6SM SCT250
     FM291400 06005KT P6SM FEW030 SCT200
     FM292000 08005KT P6SM SCT045 BKN200=

USA.gov is the U.S. government's official web portal to all federal, state and local government web resources and services.